Time;durP1;ratioP1;P1;durP2;ratioP2;P2;SDS_P1;SDS_P2;PMS_P1;PMS_P2;Temp;Humidity;BMP_temperature;BMP_pressure;BME280_temperature;BME280_humidity;BME280_pressure;Samples;Min_cycle;Max_cycle;Signal;HPM_P1;HPM_P2
2024/01/17 00:01:25;;;;;;;19.95;10.60;;;22.40;36.00;;;;;;6272746;27;83156;-59
2024/01/17 00:04:27;;;;;;;17.55;10.05;;;22.40;36.10;;;;;;6241387;27;84642;-48
2024/01/17 00:07:27;;;;;;;20.15;11.77;;;22.40;36.00;;;;;;6271762;27;84270;-47
2024/01/17 00:10:28;;;;;;;17.35;10.02;;;22.40;36.00;;;;;;6270918;27;83097;-47
2024/01/17 00:13:29;;;;;;;20.50;10.55;;;22.40;36.00;;;;;;6269873;27;85137;-46
2024/01/17 00:16:29;;;;;;;19.52;10.45;;;22.40;36.10;;;;;;6271060;27;83637;-48
2024/01/17 00:19:31;;;;;;;19.10;10.45;;;22.40;36.30;;;;;;6270206;27;83770;-48
2024/01/17 00:22:31;;;;;;;17.77;9.85;;;22.40;36.30;;;;;;6271234;27;83243;-48
2024/01/17 00:25:32;;;;;;;17.60;9.48;;;22.30;36.20;;;;;;6274602;27;81749;-50
2024/01/17 00:28:32;;;;;;;17.63;9.85;;;22.30;36.20;;;;;;6263232;27;80796;-47
2024/01/17 00:31:33;;;;;;;16.67;10.02;;;22.30;36.20;;;;;;6274092;27;80970;-47
2024/01/17 00:34:33;;;;;;;19.25;9.55;;;22.30;36.20;;;;;;6269548;27;84772;-49
2024/01/17 00:37:34;;;;;;;16.33;8.98;;;22.30;36.40;;;;;;6260244;27;83251;-49
2024/01/17 00:40:34;;;;;;;17.90;9.63;;;22.30;36.20;;;;;;6270472;27;80306;-47
2024/01/17 00:43:35;;;;;;;14.60;8.95;;;22.30;36.80;;;;;;6263186;27;81239;-47
2024/01/17 00:46:36;;;;;;;17.98;9.18;;;22.30;37.00;;;;;;6264114;27;80368;-48
2024/01/17 00:49:36;;;;;;;22.98;10.00;;;22.30;36.90;;;;;;6272824;27;82283;-52
2024/01/17 00:52:37;;;;;;;19.08;8.98;;;22.30;36.70;;;;;;6257340;27;86263;-47
2024/01/17 00:55:38;;;;;;;16.85;8.95;;;22.30;37.20;;;;;;6278027;27;82849;-47
2024/01/17 00:58:38;;;;;;;14.10;7.97;;;22.30;36.70;;;;;;6275385;27;80523;-49
2024/01/17 01:01:39;;;;;;;17.77;9.98;;;22.30;36.70;;;;;;6276166;27;80406;-52
2024/01/17 01:04:39;;;;;;;16.15;8.68;;;22.30;37.00;;;;;;6275510;27;82905;-51
2024/01/17 01:07:40;;;;;;;13.30;7.65;;;22.30;37.10;;;;;;6277181;27;83551;-48
2024/01/17 01:10:40;;;;;;;13.93;8.10;;;22.30;37.10;;;;;;6277660;27;80164;-52
2024/01/17 01:13:41;;;;;;;13.25;7.90;;;22.30;37.20;;;;;;6273791;27;80714;-49
2024/01/17 01:16:42;;;;;;;15.27;8.18;;;22.30;37.20;;;;;;6274872;27;83436;-49
2024/01/17 01:19:42;;;;;;;15.25;7.38;;;22.30;37.10;;;;;;6275275;27;81727;-50
2024/01/17 01:22:43;;;;;;;17.27;8.05;;;22.40;37.00;;;;;;6274457;27;80438;-48
2024/01/17 01:25:44;;;;;;;18.48;8.38;;;22.30;37.00;;;;;;6273940;27;80565;-52
2024/01/17 01:28:44;;;;;;;13.50;7.45;;;22.30;37.00;;;;;;6277772;27;80335;-51
2024/01/17 01:31:45;;;;;;;12.52;7.68;;;22.40;37.20;;;;;;6277674;27;80568;-52
2024/01/17 01:34:45;;;;;;;13.52;7.20;;;22.30;37.00;;;;;;6274853;27;80955;-50
2024/01/17 01:37:45;;;;;;;18.08;8.10;;;22.30;36.90;;;;;;6259700;27;81803;-49
2024/01/17 01:40:47;;;;;;;11.57;7.15;;;22.30;37.00;;;;;;6255302;27;82792;-54
2024/01/17 01:43:47;;;;;;;14.90;8.27;;;22.30;36.80;;;;;;6278610;27;80945;-53
2024/01/17 01:46:48;;;;;;;14.18;8.00;;;22.30;36.90;;;;;;6278274;27;80449;-51
2024/01/17 01:49:49;;;;;;;12.45;7.43;;;22.30;36.90;;;;;;6267012;27;80336;-51
2024/01/17 01:52:50;;;;;;;13.07;7.45;;;22.30;37.00;;;;;;6263250;27;80736;-54
2024/01/17 01:55:52;;;;;;;13.35;7.95;;;22.30;37.60;;;;;;6269409;27;80741;-50
2024/01/17 01:58:52;;;;;;;11.45;7.35;;;22.30;37.70;;;;;;6277879;27;81649;-51
2024/01/17 02:01:53;;;;;;;15.70;8.35;;;22.30;37.60;;;;;;6276773;27;81635;-49
2024/01/17 02:04:53;;;;;;;12.75;7.47;;;22.30;37.50;;;;;;6277345;27;80443;-53
2024/01/17 02:07:54;;;;;;;13.80;8.00;;;22.30;37.60;;;;;;6278790;27;80470;-50
2024/01/17 02:10:54;;;;;;;16.58;8.27;;;22.30;37.70;;;;;;6275283;27;80660;-50
2024/01/17 02:13:55;;;;;;;14.85;7.95;;;22.30;37.70;;;;;;6275195;27;80808;-53
2024/01/17 02:16:55;;;;;;;14.35;7.97;;;22.30;37.90;;;;;;6276499;27;80440;-52
2024/01/17 02:19:56;;;;;;;14.30;8.15;;;22.30;37.70;;;;;;6272502;27;85026;-52
2024/01/17 02:22:56;;;;;;;13.00;7.68;;;22.30;38.60;;;;;;6276544;27;83265;-52
2024/01/17 02:25:57;;;;;;;15.88;8.65;;;22.30;37.80;;;;;;6276773;27;80166;-55
2024/01/17 02:28:57;;;;;;;13.63;8.32;;;22.30;37.90;;;;;;6258786;27;80840;-50
2024/01/17 02:31:58;;;;;;;13.38;7.85;;;22.30;37.80;;;;;;6276773;27;80632;-47
2024/01/17 02:34:58;;;;;;;13.43;7.88;;;22.30;37.90;;;;;;6274636;27;80556;-46
2024/01/17 02:37:59;;;;;;;15.75;8.63;;;22.30;37.90;;;;;;6257977;27;81501;-47
2024/01/17 02:40:59;;;;;;;15.98;8.70;;;22.30;38.10;;;;;;6250878;27;80183;-48
2024/01/17 02:44:00;;;;;;;14.07;8.00;;;22.30;38.00;;;;;;6248953;27;80708;-48
2024/01/17 02:47:00;;;;;;;15.25;8.18;;;22.30;37.90;;;;;;6261756;27;80813;-48
2024/01/17 02:50:01;;;;;;;15.05;8.90;;;22.30;38.00;;;;;;6274546;27;81018;-55
2024/01/17 02:53:01;;;;;;;17.50;8.68;;;22.30;38.00;;;;;;6258672;27;80970;-54
2024/01/17 02:56:02;;;;;;;16.15;9.45;;;22.30;38.10;;;;;;6274376;27;81139;-57
2024/01/17 02:59:02;;;;;;;15.52;8.85;;;22.30;38.00;;;;;;6274171;27;80998;-55
2024/01/17 03:02:03;;;;;;;15.18;8.95;;;22.30;38.00;;;;;;6276947;27;81111;-57
2024/01/17 03:05:06;;;;;;;16.88;9.20;;;22.30;37.80;;;;;;6274474;27;81047;-57
2024/01/17 03:08:06;;;;;;;16.73;10.02;;;22.30;37.80;;;;;;6273722;27;80592;-57
2024/01/17 03:11:07;;;;;;;18.17;9.80;;;22.30;37.70;;;;;;6273088;27;82804;-58
2024/01/17 03:14:07;;;;;;;16.67;9.63;;;22.20;37.70;;;;;;6274997;27;82923;-58
2024/01/17 03:17:08;;;;;;;17.50;9.98;;;22.20;37.70;;;;;;6265582;27;82370;-59
2024/01/17 03:20:10;;;;;;;20.15;11.80;;;22.20;37.80;;;;;;6271066;27;83269;-57
2024/01/17 03:23:11;;;;;;;19.50;10.52;;;22.20;37.40;;;;;;6272806;27;84292;-58
2024/01/17 03:26:11;;;;;;;19.27;11.30;;;22.20;37.30;;;;;;6271824;27;83789;-58
2024/01/17 03:29:12;;;;;;;19.05;10.88;;;22.20;37.50;;;;;;6272816;27;86566;-60
2024/01/17 03:32:12;;;;;;;18.80;11.27;;;22.20;38.10;;;;;;6271994;27;83113;-60
2024/01/17 03:35:13;;;;;;;20.83;12.10;;;22.20;37.00;;;;;;6271268;27;84166;-60
2024/01/17 03:38:14;;;;;;;21.58;11.48;;;22.20;37.10;;;;;;6250176;27;82749;-60
2024/01/17 03:41:14;;;;;;;20.52;11.32;;;22.20;37.30;;;;;;6260690;27;83794;-59
2024/01/17 03:44:15;;;;;;;19.25;10.68;;;22.20;37.50;;;;;;6262608;27;83172;-49
2024/01/17 03:47:15;;;;;;;22.30;11.55;;;22.20;37.30;;;;;;6269359;27;82928;-52
2024/01/17 03:50:16;;;;;;;18.92;11.25;;;22.20;37.20;;;;;;6258721;27;83179;-51
2024/01/17 03:53:16;;;;;;;19.33;11.82;;;22.20;37.80;;;;;;6247906;27;83350;-55
2024/01/17 03:56:17;;;;;;;22.30;11.50;;;22.20;37.20;;;;;;6260175;27;84026;-50
2024/01/17 03:59:17;;;;;;;22.55;13.20;;;22.10;37.40;;;;;;6244300;27;83484;-53
2024/01/17 04:02:18;;;;;;;22.20;12.48;;;22.10;37.30;;;;;;6247699;27;83282;-51
2024/01/17 04:05:19;;;;;;;21.85;12.13;;;22.20;37.50;;;;;;6253947;27;83476;-49
2024/01/17 04:08:19;;;;;;;21.15;12.25;;;22.10;37.40;;;;;;6258435;27;84023;-47
2024/01/17 04:11:20;;;;;;;24.02;13.23;;;22.10;37.20;;;;;;6266639;27;88542;-50
2024/01/17 04:14:20;;;;;;;19.60;11.93;;;22.10;37.40;;;;;;6266917;27;82984;-49
2024/01/17 04:17:21;;;;;;;21.92;12.85;;;22.10;37.00;;;;;;6263615;27;83239;-50
2024/01/17 04:20:21;;;;;;;20.67;12.10;;;22.10;37.20;;;;;;6246324;27;83931;-50
2024/01/17 04:23:21;;;;;;;24.17;12.55;;;22.20;36.80;;;;;;6247437;27;84432;-48
2024/01/17 04:26:23;;;;;;;20.67;12.45;;;22.20;36.10;;;;;;6248917;27;84429;-49
2024/01/17 04:29:23;;;;;;;23.20;13.02;;;22.30;36.20;;;;;;6258924;27;83516;-48
2024/01/17 04:32:24;;;;;;;26.45;14.55;;;22.30;35.90;;;;;;6270651;27;83351;-47
2024/01/17 04:35:24;;;;;;;23.20;13.75;;;22.30;35.80;;;;;;6257475;27;82860;-47
2024/01/17 04:38:25;;;;;;;27.25;14.45;;;22.40;35.50;;;;;;6258775;27;85107;-52
2024/01/17 04:41:25;;;;;;;28.85;15.13;;;22.40;35.40;;;;;;6269403;27;83564;-61
2024/01/17 04:44:30;;;;;;;28.38;15.27;;;22.50;35.10;;;;;;6249798;27;85206;-60
2024/01/17 04:47:30;;;;;;;26.27;14.80;;;22.50;35.00;;;;;;6268330;27;83318;-59
2024/01/17 04:50:31;;;;;;;26.20;14.60;;;22.60;35.40;;;;;;6261126;27;88459;-63
2024/01/17 04:53:37;;;;;;;25.42;15.85;;;22.60;35.10;;;;;;6260312;27;84289;-61
2024/01/17 04:56:37;;;;;;;27.58;15.10;;;22.70;35.10;;;;;;6261405;27;84749;-63
2024/01/17 04:59:38;;;;;;;30.75;16.60;;;22.70;34.90;;;;;;6265268;27;83914;-58
2024/01/17 05:02:38;;;;;;;29.00;17.00;;;22.70;35.40;;;;;;6263356;27;85542;-62
2024/01/17 05:05:39;;;;;;;31.00;15.07;;;22.70;36.20;;;;;;6266070;27;83374;-60
2024/01/17 05:08:39;;;;;;;27.13;15.27;;;22.80;36.00;;;;;;6257453;27;83126;-60
2024/01/17 05:11:40;;;;;;;30.15;16.08;;;22.80;36.60;;;;;;6267105;27;83445;-60
2024/01/17 05:14:40;;;;;;;27.00;14.70;;;22.80;36.10;;;;;;6241901;28;85404;-59
2024/01/17 05:17:41;;;;;;;28.80;15.07;;;22.90;37.00;;;;;;6252349;27;90429;-57
2024/01/17 05:20:41;;;;;;;25.73;14.93;;;22.90;37.20;;;;;;6258082;27;83250;-47
2024/01/17 05:23:42;;;;;;;26.55;14.75;;;22.90;38.10;;;;;;6261090;27;87020;-48
2024/01/17 05:26:43;;;;;;;32.30;15.20;;;22.90;38.50;;;;;;6269562;27;83226;-49
2024/01/17 05:29:44;;;;;;;29.13;15.10;;;22.90;38.10;;;;;;6266465;27;86146;-49
2024/01/17 05:32:45;;;;;;;33.15;16.35;;;22.90;38.20;;;;;;6271463;27;83596;-48
2024/01/17 05:35:45;;;;;;;31.70;15.45;;;22.90;37.30;;;;;;6271174;27;83697;-62
2024/01/17 05:38:46;;;;;;;44.17;17.20;;;23.00;36.90;;;;;;6265865;27;83657;-60
2024/01/17 05:41:47;;;;;;;28.48;16.42;;;23.00;36.70;;;;;;6250358;27;83313;-63
2024/01/17 05:44:47;;;;;;;24.50;14.75;;;23.00;36.30;;;;;;6269505;27;83343;-58
2024/01/17 05:47:48;;;;;;;29.88;16.75;;;23.00;37.10;;;;;;6271653;27;83267;-56
2024/01/17 05:50:48;;;;;;;33.03;16.85;;;23.00;37.10;;;;;;6251336;27;84998;-59
2024/01/17 05:53:49;;;;;;;33.92;17.08;;;23.00;37.00;;;;;;6264306;27;84122;-59
2024/01/17 05:56:49;;;;;;;29.17;16.08;;;23.00;36.90;;;;;;6252882;27;83226;-58
2024/01/17 05:59:50;;;;;;;32.55;16.95;;;23.00;36.90;;;;;;6263105;27;84320;-60
2024/01/17 06:02:50;;;;;;;30.50;16.90;;;22.90;36.50;;;;;;6254808;27;84217;-59
2024/01/17 06:05:51;;;;;;;32.55;17.80;;;22.90;36.40;;;;;;6259479;27;83023;-59
2024/01/17 06:08:51;;;;;;;31.13;17.63;;;22.90;36.30;;;;;;6251334;27;84869;-59
2024/01/17 06:11:52;;;;;;;30.67;16.98;;;22.90;36.10;;;;;;6244019;27;83174;-48
2024/01/17 06:14:52;;;;;;;29.63;16.38;;;22.90;35.90;;;;;;6246738;27;83225;-47
2024/01/17 06:17:53;;;;;;;29.85;17.27;;;22.80;35.70;;;;;;6271478;27;83589;-49
2024/01/17 06:20:53;;;;;;;30.33;18.83;;;22.80;35.60;;;;;;6271354;27;83654;-48
2024/01/17 06:23:54;;;;;;;28.13;17.23;;;22.80;35.60;;;;;;6269453;27;83222;-49
2024/01/17 06:26:54;;;;;;;29.02;17.27;;;22.80;35.90;;;;;;6271821;27;83425;-48
2024/01/17 06:29:55;;;;;;;34.03;16.90;;;22.70;36.10;;;;;;6258439;27;86253;-50
2024/01/17 06:32:55;;;;;;;31.88;18.92;;;22.70;36.60;;;;;;6257160;27;85235;-52
2024/01/17 06:35:56;;;;;;;33.38;17.63;;;22.60;35.90;;;;;;6264976;27;90254;-54
2024/01/17 06:38:56;;;;;;;33.35;17.35;;;22.60;36.00;;;;;;6267833;27;83768;-53
2024/01/17 06:41:57;;;;;;;28.48;16.83;;;22.60;35.80;;;;;;6269049;27;83463;-50
2024/01/17 06:44:57;;;;;;;26.85;15.55;;;22.60;35.50;;;;;;6268316;27;85968;-53
2024/01/17 06:47:59;;;;;;;26.75;15.85;;;22.50;35.30;;;;;;6271568;27;83434;-50
2024/01/17 06:50:59;;;;;;;27.50;14.88;;;22.50;35.20;;;;;;6260315;27;83253;-51
2024/01/17 06:54:00;;;;;;;33.17;16.40;;;22.50;35.30;;;;;;6267086;27;83240;-51
2024/01/17 06:57:00;;;;;;;24.98;14.20;;;22.50;36.80;;;;;;6251360;27;83417;-47
2024/01/17 07:00:01;;;;;;;24.10;13.68;;;22.40;37.80;;;;;;6257917;27;84265;-48
2024/01/17 07:03:01;;;;;;;20.52;12.55;;;22.40;37.50;;;;;;6254643;27;83804;-48
2024/01/17 07:06:02;;;;;;;21.73;12.80;;;22.40;37.00;;;;;;6265883;27;84991;-61
2024/01/17 07:09:02;;;;;;;22.73;13.13;;;22.40;37.20;;;;;;6260065;27;83149;-61
2024/01/17 07:12:02;;;;;;;23.65;13.13;;;22.40;37.30;;;;;;6270339;27;86231;-61
2024/01/17 07:15:03;;;;;;;23.33;14.00;;;22.30;37.70;;;;;;6263444;27;82961;-61
2024/01/17 07:18:03;;;;;;;26.83;15.15;;;22.30;37.50;;;;;;6268338;27;87244;-62
2024/01/17 07:21:04;;;;;;;25.05;14.02;;;22.30;37.90;;;;;;6264500;27;83073;-61
2024/01/17 07:24:04;;;;;;;30.45;16.38;;;22.20;37.70;;;;;;6265079;27;83093;-62
2024/01/17 07:27:05;;;;;;;28.88;16.52;;;22.20;37.80;;;;;;6266633;27;83308;-50
2024/01/17 07:30:05;;;;;;;30.15;16.45;;;22.20;38.30;;;;;;6265837;27;84021;-53
2024/01/17 07:33:06;;;;;;;28.75;16.67;;;22.20;38.80;;;;;;6264505;27;88661;-51
2024/01/17 07:36:07;;;;;;;29.13;16.20;;;22.20;38.50;;;;;;6266501;27;83018;-49
2024/01/17 07:39:10;;;;;;;27.63;16.33;;;22.30;38.90;;;;;;6256792;27;82839;-48
2024/01/17 07:42:11;;;;;;;27.35;15.43;;;22.30;38.80;;;;;;6248084;27;84656;-48
2024/01/17 07:45:11;;;;;;;29.15;15.77;;;22.30;38.90;;;;;;6256025;27;83457;-59
2024/01/17 07:48:12;;;;;;;28.13;16.77;;;22.30;39.10;;;;;;6247393;27;83987;-61
2024/01/17 07:51:13;;;;;;;27.33;17.25;;;22.40;38.60;;;;;;6246770;27;83017;-60
2024/01/17 07:54:13;;;;;;;26.88;16.15;;;22.40;39.10;;;;;;6247051;27;83128;-60
2024/01/17 07:57:14;;;;;;;25.67;16.15;;;22.40;39.00;;;;;;6258703;27;83256;-60
2024/01/17 08:00:14;;;;;;;29.13;16.55;;;22.40;38.90;;;;;;6247205;27;83353;-61
2024/01/17 08:03:15;;;;;;;27.63;16.70;;;22.50;38.50;;;;;;6246409;27;82866;-62
2024/01/17 08:06:16;;;;;;;27.88;17.25;;;22.50;38.50;;;;;;6259314;27;87560;-61
2024/01/17 08:09:26;;;;;;;29.88;17.63;;;22.60;38.40;;;;;;6256248;27;83424;-61
2024/01/17 08:12:26;;;;;;;27.08;17.20;;;22.60;38.20;;;;;;6262904;27;83209;-61
2024/01/17 08:15:27;;;;;;;29.30;16.52;;;22.70;38.10;;;;;;6246655;27;83602;-61
2024/01/17 08:18:27;;;;;;;27.10;16.40;;;22.70;38.00;;;;;;6246157;27;82892;-60
2024/01/17 08:21:28;;;;;;;27.48;16.92;;;22.80;38.10;;;;;;6246142;27;83811;-53
2024/01/17 08:24:29;;;;;;;27.45;17.35;;;22.80;38.40;;;;;;6252823;27;83979;-52
2024/01/17 08:27:29;;;;;;;28.15;15.90;;;22.90;38.50;;;;;;6247102;27;82970;-52
2024/01/17 08:30:31;;;;;;;28.15;15.82;;;22.90;37.90;;;;;;6256211;27;85661;-52
2024/01/17 08:33:31;;;;;;;25.58;15.90;;;23.00;38.10;;;;;;6249060;27;83826;-49
2024/01/17 08:36:33;;;;;;;27.02;16.48;;;23.00;37.60;;;;;;6266451;27;84746;-53
2024/01/17 08:39:33;;;;;;;27.02;16.20;;;23.10;37.70;;;;;;6269897;27;83019;-61
2024/01/17 08:42:34;;;;;;;28.60;16.35;;;23.10;37.70;;;;;;6266144;27;83570;-60
2024/01/17 08:45:34;;;;;;;26.48;15.15;;;23.20;37.80;;;;;;6246656;27;85097;-60
2024/01/17 08:48:35;;;;;;;26.10;15.73;;;23.30;38.00;;;;;;6247563;27;83546;-60
2024/01/17 08:51:36;;;;;;;28.15;16.40;;;23.30;38.10;;;;;;6259082;27;83120;-61
2024/01/17 08:54:37;;;;;;;26.67;16.58;;;23.40;38.00;;;;;;6247212;27;83218;-60
2024/01/17 08:57:37;;;;;;;27.98;16.52;;;23.50;38.10;;;;;;6246500;27;83246;-47
2024/01/17 09:00:38;;;;;;;28.10;16.00;;;23.50;38.20;;;;;;6247761;27;83185;-48
2024/01/17 09:03:39;;;;;;;27.80;16.05;;;23.60;38.40;;;;;;6251383;27;84001;-51
2024/01/17 09:06:40;;;;;;;27.30;17.40;;;23.70;38.50;;;;;;6251635;27;84054;-51
2024/01/17 09:09:40;;;;;;;26.45;16.30;;;23.70;38.30;;;;;;6250173;27;84374;-51
2024/01/17 09:12:41;;;;;;;28.42;17.58;;;23.80;38.30;;;;;;6251143;27;84782;-53
2024/01/17 09:15:41;;;;;;;26.13;16.35;;;23.80;38.20;;;;;;6272015;27;83136;-52
2024/01/17 09:18:42;;;;;;;30.50;17.63;;;23.90;38.20;;;;;;6275258;27;82854;-49
2024/01/17 09:21:42;;;;;;;28.38;17.15;;;23.90;38.20;;;;;;6273328;27;85364;-48
2024/01/17 09:24:43;;;;;;;28.00;17.27;;;24.00;38.10;;;;;;6272841;27;83323;-52
2024/01/17 09:27:43;;;;;;;29.60;16.38;;;24.00;38.10;;;;;;6259965;27;84054;-47
2024/01/17 09:30:44;;;;;;;27.02;15.85;;;24.20;38.10;;;;;;6262442;27;83450;-51
2024/01/17 09:33:44;;;;;;;25.55;15.45;;;24.20;38.10;;;;;;6274321;27;86347;-59
2024/01/17 09:36:45;;;;;;;24.83;14.70;;;24.30;38.10;;;;;;6272606;27;83345;-58
2024/01/17 09:39:47;;;;;;;26.67;16.08;;;24.30;38.50;;;;;;6266696;27;83937;-60
2024/01/17 09:42:47;;;;;;;27.75;16.05;;;24.40;38.60;;;;;;6268109;27;83245;-59
2024/01/17 09:45:48;;;;;;;27.15;16.50;;;24.40;38.70;;;;;;6273103;27;84672;-57
2024/01/17 09:48:48;;;;;;;26.17;16.52;;;24.40;38.50;;;;;;6273572;27;84962;-59
2024/01/17 09:51:49;;;;;;;26.75;16.48;;;24.40;38.30;;;;;;6262262;27;84373;-60
2024/01/17 09:54:49;;;;;;;26.95;17.45;;;24.50;38.20;;;;;;6274063;27;83222;-60
2024/01/17 09:57:50;;;;;;;25.55;16.15;;;24.50;38.20;;;;;;6272476;27;83305;-58
2024/01/17 10:00:51;;;;;;;28.88;16.30;;;24.60;38.20;;;;;;6272325;27;83416;-59
2024/01/17 10:03:51;;;;;;;26.38;16.10;;;24.50;38.00;;;;;;6273675;27;83470;-58
2024/01/17 10:06:52;;;;;;;25.17;15.40;;;24.60;38.00;;;;;;6270318;27;83683;-54
2024/01/17 10:09:53;;;;;;;24.73;15.70;;;24.60;38.10;;;;;;6248756;27;83729;-60
2024/01/17 10:12:54;;;;;;;25.60;16.45;;;24.60;38.10;;;;;;6247296;27;83447;-59
2024/01/17 10:15:55;;;;;;;26.20;16.02;;;24.60;38.20;;;;;;6248204;27;83427;-59
2024/01/17 10:18:55;;;;;;;24.80;15.60;;;24.60;37.90;;;;;;6271990;27;83335;-59
2024/01/17 10:21:56;;;;;;;27.25;15.50;;;24.60;38.10;;;;;;6265381;27;83715;-60
2024/01/17 10:24:56;;;;;;;25.58;15.38;;;24.60;38.00;;;;;;6256540;27;84019;-59
2024/01/17 10:27:57;;;;;;;20.00;13.60;;;24.60;37.80;;;;;;6258992;27;83723;-59
2024/01/17 10:30:57;;;;;;;21.67;14.70;;;24.60;38.00;;;;;;6253544;27;83607;-64
2024/01/17 10:33:58;;;;;;;21.80;13.27;;;24.60;38.00;;;;;;6265364;27;85108;-63
2024/01/17 10:36:58;;;;;;;22.85;13.93;;;24.60;38.00;;;;;;6272188;27;83515;-63
2024/01/17 10:39:59;;;;;;;18.38;12.45;;;24.60;38.00;;;;;;6273040;27;83252;-63
2024/01/17 10:42:59;;;;;;;22.05;12.45;;;24.60;37.90;;;;;;6264806;27;82906;-63
2024/01/17 10:45:59;;;;;;;19.55;12.60;;;24.60;38.20;;;;;;6264176;27;83682;-62
2024/01/17 10:49:00;;;;;;;21.20;13.48;;;24.60;37.90;;;;;;6269840;27;82851;-46
2024/01/17 10:52:02;;;;;;;22.00;12.93;;;24.70;38.00;;;;;;6258999;27;84515;-51
2024/01/17 10:55:04;;;;;;;23.17;12.75;;;24.60;38.10;;;;;;6249561;27;83067;-53
2024/01/17 10:58:04;;;;;;;20.13;12.65;;;24.50;38.10;;;;;;6249635;27;83322;-48
2024/01/17 11:01:05;;;;;;;20.42;12.90;;;24.50;38.20;;;;;;6261391;27;83556;-49
2024/01/17 11:04:06;;;;;;;26.33;12.07;;;24.60;38.70;;;;;;6250428;27;83193;-48
2024/01/17 11:07:06;;;;;;;18.95;12.27;;;24.50;38.80;;;;;;6262630;27;83670;-52
2024/01/17 11:10:07;;;;;;;21.38;12.27;;;24.60;38.20;;;;;;6262228;27;84368;-50
2024/01/17 11:13:07;;;;;;;20.83;12.50;;;24.50;38.40;;;;;;6271504;27;83218;-52
2024/01/17 11:16:08;;;;;;;21.67;11.98;;;24.50;38.50;;;;;;6261148;27;82690;-49
2024/01/17 11:19:09;;;;;;;22.67;13.05;;;24.40;38.50;;;;;;6247162;27;84371;-51
2024/01/17 11:22:09;;;;;;;18.80;11.88;;;24.40;38.60;;;;;;6255704;27;82757;-51
2024/01/17 11:25:12;;;;;;;21.40;12.38;;;24.30;38.50;;;;;;6263597;27;84426;-51
2024/01/17 11:28:13;;;;;;;20.52;12.60;;;24.30;38.60;;;;;;6257888;27;83024;-47
2024/01/17 11:31:13;;;;;;;19.60;11.88;;;24.20;38.60;;;;;;6266984;27;84092;-48
2024/01/17 11:34:14;;;;;;;21.50;12.63;;;24.20;38.60;;;;;;6248541;27;82811;-49
2024/01/17 11:37:14;;;;;;;20.95;12.43;;;24.20;38.50;;;;;;6263138;27;86960;-51
2024/01/17 11:40:15;;;;;;;22.38;12.75;;;24.10;38.40;;;;;;6269176;27;83056;-52
2024/01/17 11:43:15;;;;;;;25.88;12.55;;;24.10;38.60;;;;;;6266949;27;83411;-64
2024/01/17 11:46:16;;;;;;;21.67;13.02;;;24.00;38.80;;;;;;6258843;27;86874;-63
2024/01/17 11:49:17;;;;;;;21.90;12.25;;;24.00;38.80;;;;;;6257075;27;86705;-62
2024/01/17 11:52:17;;;;;;;20.50;12.43;;;23.90;38.90;;;;;;6258168;27;85049;-62
2024/01/17 11:55:18;;;;;;;20.77;12.88;;;23.80;38.80;;;;;;6268923;27;84904;-62
2024/01/17 11:58:18;;;;;;;19.77;12.07;;;23.80;38.60;;;;;;6263728;27;83173;-62
2024/01/17 12:01:19;;;;;;;19.65;12.07;;;23.70;38.80;;;;;;6264058;27;83010;-58
2024/01/17 12:04:19;;;;;;;22.38;12.85;;;23.70;38.90;;;;;;6263877;27;84964;-57
2024/01/17 12:07:20;;;;;;;19.40;12.63;;;23.70;38.90;;;;;;6254446;27;83036;-59
2024/01/17 12:10:21;;;;;;;18.50;12.63;;;23.70;38.80;;;;;;6259320;27;84395;-58
2024/01/17 12:13:21;;;;;;;22.02;13.85;;;23.70;38.60;;;;;;6248057;27;85158;-59
2024/01/17 12:16:23;;;;;;;23.60;13.45;;;23.60;38.70;;;;;;6260152;27;83824;-59
2024/01/17 12:19:23;;;;;;;22.55;14.65;;;23.60;38.50;;;;;;6246326;27;83139;-63
2024/01/17 12:22:24;;;;;;;24.42;13.88;;;23.60;38.10;;;;;;6250287;27;83062;-62
2024/01/17 12:25:24;;;;;;;24.30;15.45;;;23.60;38.10;;;;;;6250720;27;84749;-62
2024/01/17 12:28:25;;;;;;;23.58;14.05;;;23.60;38.50;;;;;;6250270;27;84782;-62
2024/01/17 12:31:26;;;;;;;24.23;14.23;;;23.50;38.00;;;;;;6249819;27;83300;-62
2024/01/17 12:34:26;;;;;;;22.38;14.07;;;23.50;37.90;;;;;;6250290;27;83862;-61
2024/01/17 12:37:27;;;;;;;24.65;14.52;;;23.50;37.50;;;;;;6262364;27;83913;-59
2024/01/17 12:40:28;;;;;;;23.60;14.45;;;23.50;37.40;;;;;;6254757;27;82936;-60
2024/01/17 12:43:29;;;;;;;23.95;14.40;;;23.50;37.10;;;;;;6265900;27;83150;-60
2024/01/17 12:46:29;;;;;;;21.52;14.23;;;23.50;37.00;;;;;;6267268;27;84325;-59
2024/01/17 12:49:30;;;;;;;24.67;15.48;;;23.50;37.10;;;;;;6250794;27;82881;-59
2024/01/17 12:52:30;;;;;;;25.63;15.07;;;23.50;36.80;;;;;;6251015;27;85379;-59
2024/01/17 12:55:31;;;;;;;22.65;14.43;;;23.50;36.70;;;;;;6259158;27;84064;-60
2024/01/17 12:58:31;;;;;;;24.70;15.02;;;23.50;36.80;;;;;;6261246;27;84016;-60
2024/01/17 13:01:32;;;;;;;24.27;14.07;;;23.50;36.80;;;;;;6252072;27;83657;-61
2024/01/17 13:04:32;;;;;;;22.92;14.15;;;23.60;36.90;;;;;;6273946;27;84072;-60
2024/01/17 13:07:33;;;;;;;24.42;15.30;;;23.50;36.60;;;;;;6266557;27;85976;-59
2024/01/17 13:10:33;;;;;;;24.70;14.27;;;23.50;36.60;;;;;;6256061;27;83316;-60
2024/01/17 13:13:34;;;;;;;24.13;14.20;;;23.50;36.70;;;;;;6269417;27;85098;-61
2024/01/17 13:16:34;;;;;;;23.35;13.48;;;23.50;36.60;;;;;;6273559;27;83112;-61
2024/01/17 13:19:35;;;;;;;23.17;14.65;;;23.50;36.60;;;;;;6265413;27;83458;-61
2024/01/17 13:22:36;;;;;;;24.27;14.95;;;23.40;37.00;;;;;;6274197;27;83038;-63
2024/01/17 13:25:36;;;;;;;20.25;13.32;;;23.40;37.00;;;;;;6275037;27;83147;-63
2024/01/17 13:28:37;;;;;;;21.08;13.65;;;23.40;36.90;;;;;;6260060;27;83574;-61
2024/01/17 13:31:37;;;;;;;22.25;13.25;;;23.30;37.40;;;;;;6271018;27;83180;-57
2024/01/17 13:34:39;;;;;;;20.85;12.38;;;23.30;37.70;;;;;;6263254;27;82935;-59
2024/01/17 13:37:41;;;;;;;23.25;12.60;;;23.30;39.20;;;;;;6273463;27;83235;-57
2024/01/17 13:40:41;;;;;;;20.42;12.77;;;23.30;37.30;;;;;;6270911;27;83611;-59
2024/01/17 13:43:42;;;;;;;20.65;13.20;;;23.30;37.10;;;;;;6271476;27;82980;-57
2024/01/17 13:46:42;;;;;;;26.60;13.13;;;23.30;37.40;;;;;;6256617;27;83538;-59
2024/01/17 13:49:44;;;;;;;16.42;11.18;;;23.30;37.30;;;;;;6256283;27;82775;-59
2024/01/17 13:52:47;;;;;;;17.30;11.52;;;23.30;37.60;;;;;;6255689;27;84774;-60
2024/01/17 13:55:47;;;;;;;18.80;11.57;;;23.30;38.20;;;;;;6256471;27;83562;-60
2024/01/17 13:58:48;;;;;;;15.98;10.65;;;23.30;38.40;;;;;;6257012;27;84213;-59
2024/01/17 14:01:48;;;;;;;14.57;9.45;;;23.30;38.60;;;;;;6260775;27;83229;-59
2024/01/17 14:04:49;;;;;;;13.82;8.93;;;23.30;38.80;;;;;;6268637;27;83619;-61
2024/01/17 14:07:49;;;;;;;21.88;11.23;;;23.30;39.00;;;;;;6248633;27;80820;-58
2024/01/17 14:10:50;;;;;;;19.77;10.30;;;23.30;39.10;;;;;;6270497;27;84102;-51
2024/01/17 14:13:50;;;;;;;21.05;10.30;;;23.40;39.20;;;;;;6271468;27;83105;-50
2024/01/17 14:16:51;;;;;;;17.50;10.82;;;23.40;40.10;;;;;;6265278;27;84488;-49
2024/01/17 14:19:54;;;;;;;16.15;9.10;;;23.40;39.80;;;;;;6254835;27;84593;-49
2024/01/17 14:22:56;;;;;;;16.60;9.85;;;23.40;40.50;;;;;;6270283;27;82942;-50
2024/01/17 14:25:57;;;;;;;17.58;8.85;;;23.50;40.20;;;;;;6265803;27;86228;-50
2024/01/17 14:28:57;;;;;;;16.73;9.32;;;23.50;40.80;;;;;;6252073;27;82125;-53
2024/01/17 14:31:58;;;;;;;17.27;10.27;;;23.50;40.90;;;;;;6267089;27;81393;-55
2024/01/17 14:34:58;;;;;;;18.70;9.90;;;23.50;41.30;;;;;;6269800;27;83213;-55
2024/01/17 14:37:59;;;;;;;18.30;10.95;;;23.50;41.10;;;;;;6277659;27;84754;-54
2024/01/17 14:40:59;;;;;;;16.02;8.55;;;23.60;40.80;;;;;;6273079;27;83119;-60
2024/01/17 14:44:00;;;;;;;20.65;10.05;;;23.60;40.90;;;;;;6254903;27;83794;-57
2024/01/17 14:47:01;;;;;;;15.13;9.13;;;23.60;40.80;;;;;;6247697;27;83545;-49
2024/01/17 14:50:04;;;;;;;14.45;9.30;;;23.60;40.90;;;;;;6270058;27;83088;-54
2024/01/17 14:53:04;;;;;;;16.05;9.98;;;23.60;41.00;;;;;;6270600;27;81690;-48
2024/01/17 14:56:05;;;;;;;15.77;9.70;;;23.60;41.10;;;;;;6266854;27;83234;-52
2024/01/17 14:59:05;;;;;;;16.08;9.30;;;23.60;40.90;;;;;;6265320;27;82913;-49
2024/01/17 15:02:06;;;;;;;13.68;8.75;;;23.60;41.00;;;;;;6270521;27;80655;-47
2024/01/17 15:05:07;;;;;;;16.25;9.25;;;23.60;40.90;;;;;;6268484;27;85534;-50
2024/01/17 15:08:08;;;;;;;11.30;8.27;;;23.70;40.70;;;;;;6259804;27;80145;-51
2024/01/17 15:11:08;;;;;;;15.48;9.70;;;23.70;40.60;;;;;;6271308;27;80653;-51
2024/01/17 15:14:09;;;;;;;15.98;9.23;;;23.70;40.40;;;;;;6273812;27;80377;-51
2024/01/17 15:17:10;;;;;;;15.93;9.00;;;23.60;40.40;;;;;;6275082;27;81373;-48